Time;durP1;ratioP1;P1;durP2;ratioP2;P2;SDS_P1;SDS_P2;PMS_P1;PMS_P2;Temp;Humidity;BMP_temperature;BMP_pressure;BME280_temperature;BME280_humidity;BME280_pressure;Samples;Min_cycle;Max_cycle;Signal;HPM_P1;HPM_P2
2022/09/26 00:00:15;;;;;;;7.40;3.80;;;;;;;11.96;59.61;99381.16;25075;1315;3026722;-67
2022/09/26 00:02:46;;;;;;;8.00;3.40;;;;;;;11.97;59.78;99381.95;25124;1315;3053225;-67
2022/09/26 00:05:15;;;;;;;8.70;3.80;;;;;;;11.92;60.31;99376.30;25079;1315;3030738;-64
2022/09/26 00:07:46;;;;;;;5.90;3.20;;;;;;;12.01;60.19;99369.05;25134;1315;3055244;-69
2022/09/26 00:10:19;;;;;;;8.80;4.20;;;;;;;12.04;60.15;99374.10;25096;1315;3028188;-67
2022/09/26 00:12:48;;;;;;;9.60;3.40;;;;;;;12.05;60.28;99375.29;25108;1315;3028844;-66
2022/09/26 00:15:21;;;;;;;8.20;3.80;;;;;;;12.07;60.26;99371.41;25031;1315;3055207;-66
2022/09/26 00:17:56;;;;;;;11.40;4.40;;;;;;;12.11;60.43;99375.04;25107;1315;3052265;-65
2022/09/26 00:20:26;;;;;;;8.80;4.20;;;;;;;12.14;60.62;99372.40;25100;1315;3027100;-66
2022/09/26 00:22:55;;;;;;;10.20;5.20;;;;;;;12.05;61.51;99366.63;25068;1315;3027707;-66
2022/09/26 00:25:25;;;;;;;8.80;3.20;;;;;;;12.07;61.32;99370.73;25074;1315;3028741;-68
2022/09/26 00:27:54;;;;;;;8.60;4.20;;;;;;;12.07;61.63;99363.40;25107;1315;3070075;-65
2022/09/26 00:30:25;;;;;;;13.20;4.50;;;;;;;12.06;61.83;99360.45;25085;1315;3028066;-65
2022/09/26 00:32:54;;;;;;;10.40;4.60;;;;;;;12.09;62.05;99352.52;25081;1315;3026314;-65
2022/09/26 00:35:22;;;;;;;12.60;4.80;;;;;;;12.13;62.20;99349.80;25079;1315;3068450;-65
2022/09/26 00:37:51;;;;;;;14.30;5.00;;;;;;;12.08;62.58;99347.30;25058;1315;3027187;-67
2022/09/26 00:40:26;;;;;;;13.30;5.40;;;;;;;12.10;62.70;99347.39;25096;1315;3052968;-65
2022/09/26 00:42:56;;;;;;;13.00;5.20;;;;;;;12.12;62.86;99341.95;25011;1317;3069688;-65
2022/09/26 00:45:29;;;;;;;13.40;5.60;;;;;;;12.08;63.35;99342.02;25075;1315;3026522;-65
2022/09/26 00:48:00;;;;;;;51.10;18.30;;;;;;;12.10;63.54;99338.08;25019;1315;3030424;-65
2022/09/26 00:50:38;;;;;;;68.10;24.20;;;;;;;12.07;63.75;99334.37;25080;1314;3027487;-68
2022/09/26 00:53:18;;;;;;;44.10;16.80;;;;;;;12.12;63.66;99331.10;25068;1315;3056597;-67
2022/09/26 00:55:55;;;;;;;33.00;13.10;;;;;;;12.15;63.84;99332.31;25089;1315;3052984;-63
2022/09/26 00:58:38;;;;;;;32.40;13.90;;;;;;;12.15;63.83;99325.61;25122;1313;3055570;-65
2022/09/26 01:01:07;;;;;;;23.30;9.00;;;;;;;12.13;64.18;99323.26;25071;1315;3051018;-66
2022/09/26 01:03:37;;;;;;;16.20;5.90;;;;;;;12.14;64.24;99319.22;25059;1315;3026463;-66
2022/09/26 01:06:06;;;;;;;8.10;4.20;;;;;;;12.09;64.59;99318.46;25083;1316;3052569;-66
2022/09/26 01:08:38;;;;;;;9.60;4.60;;;;;;;12.10;64.36;99319.10;25141;1313;3026258;-64
2022/09/26 01:11:08;;;;;;;11.90;4.10;;;;;;;12.15;64.13;99315.27;25086;1313;3052663;-63
2022/09/26 01:13:38;;;;;;;8.40;3.70;;;;;;;12.18;64.10;99310.30;25114;1315;3026756;-64
2022/09/26 01:16:07;;;;;;;13.20;4.20;;;;;;;12.19;64.35;99305.65;25117;1315;3026117;-66
2022/09/26 01:18:36;;;;;;;7.80;3.80;;;;;;;12.18;64.23;99305.23;25101;1315;3026392;-64
2022/09/26 01:21:33;;;;;;;7.60;3.80;;;;;;;12.19;64.00;99304.06;25111;1315;3055353;-63
2022/09/26 01:24:31;;;;;;;10.70;4.50;;;;;;;12.12;64.78;99305.24;25080;1315;3050883;-67
2022/09/26 01:27:03;;;;;;;5.90;3.70;;;;;;;12.16;64.96;99308.52;25063;1315;3069948;-65
2022/09/26 01:29:55;;;;;;;10.30;3.70;;;;;;;12.19;64.99;99308.78;25054;1316;3026852;-65
2022/09/26 01:33:02;;;;;;;6.40;3.60;;;;;;;12.18;65.65;99309.27;25117;1315;3053047;-62
2022/09/26 01:35:51;;;;;;;12.60;3.40;;;;;;;12.14;66.17;99308.09;25049;1315;3055305;-66
2022/09/26 01:38:27;;;;;;;7.50;3.40;;;;;;;12.18;65.82;99310.64;25116;1315;3056432;-65
2022/09/26 01:41:04;;;;;;;8.40;3.60;;;;;;;12.19;66.19;99305.30;25064;1315;3050286;-65
2022/09/26 01:43:44;;;;;;;6.70;3.30;;;;;;;12.18;66.74;99306.64;25100;1315;3055594;-65
2022/09/26 01:46:35;;;;;;;7.00;3.50;;;;;;;12.12;67.35;99305.94;24991;1317;3051639;-67
2022/09/26 01:49:10;;;;;;;5.80;2.60;;;;;;;12.14;67.78;99304.23;25023;1315;3069918;-64
2022/09/26 01:51:58;;;;;;;4.20;2.30;;;;;;;12.92;65.98;99296.98;25070;1319;3049740;-63
2022/09/26 01:54:33;;;;;;;7.30;3.00;;;;;;;13.49;63.72;99294.71;25081;1315;3055502;-66
2022/09/26 01:57:04;;;;;;;9.10;3.50;;;;;;;13.44;63.77;99293.02;25052;1318;3052842;-63
2022/09/26 01:59:40;;;;;;;4.70;3.20;;;;;;;13.29;64.34;99290.05;25058;1315;3026267;-65
2022/09/26 02:02:18;;;;;;;4.90;3.30;;;;;;;13.21;64.93;99286.20;25062;1315;3051498;-63
2022/09/26 02:04:48;;;;;;;4.30;3.00;;;;;;;13.01;65.29;99288.54;25086;1315;3055595;-65
2022/09/26 02:07:18;;;;;;;7.60;3.60;;;;;;;12.84;66.56;99286.31;25044;1315;3026842;-66
2022/09/26 02:09:58;;;;;;;5.10;3.50;;;;;;;12.73;67.08;99288.84;25103;1315;3028298;-66
2022/09/26 02:12:38;;;;;;;6.20;3.50;;;;;;;12.63;67.66;99284.80;25072;1315;3051885;-68
2022/09/26 02:15:10;;;;;;;8.00;3.20;;;;;;;12.53;68.40;99281.65;25048;1315;3052858;-68
2022/09/26 02:17:45;;;;;;;5.70;3.30;;;;;;;12.43;68.87;99281.35;25134;1315;3026199;-67
2022/09/26 02:20:44;;;;;;;7.00;3.20;;;;;;;12.41;69.21;99284.06;25036;1315;3058456;-65
2022/09/26 02:23:13;;;;;;;7.10;3.50;;;;;;;12.42;69.54;99282.63;25070;1315;3050189;-65
2022/09/26 02:25:42;;;;;;;4.30;2.40;;;;;;;12.40;70.07;99287.17;25118;1315;3026016;-64
2022/09/26 02:28:13;;;;;;;5.20;3.10;;;;;;;13.00;68.33;99285.98;25045;1315;3055455;-63
2022/09/26 02:30:43;;;;;;;5.30;2.80;;;;;;;13.56;66.77;99289.46;24975;1315;3026780;-64
2022/09/26 02:33:12;;;;;;;5.50;3.20;;;;;;;13.52;65.87;99287.27;25100;1315;3027300;-62
2022/09/26 02:35:54;;;;;;;4.70;3.10;;;;;;;13.41;66.61;99287.40;25022;1315;3026249;-64
2022/09/26 02:38:25;;;;;;;7.00;3.60;;;;;;;13.15;67.33;99290.85;25057;1316;3071514;-63
2022/09/26 02:41:21;;;;;;;5.30;3.40;;;;;;;13.03;67.89;99288.58;25080;1315;3052399;-66
2022/09/26 02:44:22;;;;;;;6.40;3.60;;;;;;;12.91;68.41;99287.86;25103;1315;3052722;-69
2022/09/26 02:47:28;;;;;;;5.30;3.60;;;;;;;12.71;69.75;99278.61;25069;1315;3053104;-68
2022/09/26 02:50:24;;;;;;;6.00;3.70;;;;;;;12.60;70.63;99286.96;25068;1315;3058960;-65
2022/09/26 02:53:30;;;;;;;7.70;3.50;;;;;;;12.41;72.40;99294.27;25058;1315;3050141;-68
2022/09/26 02:56:13;;;;;;;4.10;2.20;;;;;;;12.35;73.34;99288.41;25049;1318;3053343;-65
2022/09/26 02:58:51;;;;;;;6.40;3.20;;;;;;;13.05;71.48;99283.52;25098;1315;3051134;-66
2022/09/26 03:01:27;;;;;;;5.00;2.80;;;;;;;13.45;70.05;99280.61;24962;1315;3071673;-67
2022/09/26 03:04:45;;;;;;;5.80;2.90;;;;;;;13.45;70.20;99285.70;25052;1315;3049930;-68
2022/09/26 03:07:18;;;;;;;6.50;3.90;;;;;;;13.18;71.32;99281.55;25087;1317;3054618;-69
2022/09/26 03:09:49;;;;;;;6.00;3.80;;;;;;;13.12;71.19;99275.14;24986;1315;3054043;-67
2022/09/26 03:12:18;;;;;;;5.10;3.50;;;;;;;12.79;72.66;99271.84;25044;1316;3026651;-67
2022/09/26 03:14:48;;;;;;;9.20;3.00;;;;;;;12.76;72.74;99271.94;24968;1318;3026751;-66
2022/09/26 03:17:18;;;;;;;6.70;3.40;;;;;;;12.74;72.90;99266.48;25148;1315;3026587;-64
2022/09/26 03:19:52;;;;;;;3.90;2.40;;;;;;;12.67;73.62;99276.80;25066;1315;3027230;-66
2022/09/26 03:22:21;;;;;;;;;;;;;;;13.01;72.80;99277.31;25011;1315;3053926;-67
2022/09/26 03:24:50;;;;;;;8.40;3.20;;;;;;;13.50;70.70;99268.56;25050;1316;3026934;-67
2022/09/26 03:27:19;;;;;;;5.00;2.50;;;;;;;13.55;70.60;99270.36;25115;1315;3055646;-69
2022/09/26 03:29:49;;;;;;;5.70;2.80;;;;;;;13.35;70.75;99260.91;25048;1315;3026921;-68
2022/09/26 03:32:22;;;;;;;6.20;2.90;;;;;;;13.10;71.87;99259.21;25042;1315;3053301;-68
2022/09/26 03:34:51;;;;;;;4.40;2.90;;;;;;;12.98;72.21;99262.77;25119;1315;3026508;-67
2022/09/26 03:37:20;;;;;;;5.60;3.50;;;;;;;12.84;73.04;99252.58;25066;1315;3026381;-65
2022/09/26 03:39:49;;;;;;;10.90;3.10;;;;;;;12.68;73.89;99253.04;25067;1315;3055092;-65
2022/09/26 03:42:32;;;;;;;4.40;2.60;;;;;;;12.62;74.22;99253.27;25111;1315;3053873;-68
2022/09/26 03:45:07;;;;;;;4.10;2.40;;;;;;;13.17;72.71;99248.16;25098;1315;3026155;-67
2022/09/26 03:47:56;;;;;;;11.40;3.00;;;;;;;13.78;70.50;99248.86;25072;1315;3049380;-65
2022/09/26 03:50:27;;;;;;;5.50;3.00;;;;;;;13.75;69.90;99254.09;25107;1315;3028476;-64
2022/09/26 03:52:56;;;;;;;5.80;3.10;;;;;;;13.40;71.30;99274.62;25021;1315;3027497;-64
2022/09/26 03:55:25;;;;;;;4.80;3.20;;;;;;;13.19;72.81;99258.22;25033;1315;3050362;-61
2022/09/26 03:57:54;;;;;;;7.20;4.00;;;;;;;13.06;73.58;99256.23;25085;1315;3026285;-68
2022/09/26 04:00:29;;;;;;;6.90;3.70;;;;;;;12.90;74.75;99258.98;25046;1315;3069014;-65
2022/09/26 04:03:01;;;;;;;8.50;3.70;;;;;;;12.74;75.18;99261.70;25048;1315;3026963;-65
2022/09/26 04:05:39;;;;;;;8.20;2.80;;;;;;;12.71;75.41;99264.95;25110;1315;3052985;-67
2022/09/26 04:08:09;;;;;;;7.80;4.00;;;;;;;13.16;74.03;99266.35;25075;1315;3026993;-66
2022/09/26 04:10:39;;;;;;;10.10;3.60;;;;;;;13.56;72.63;99263.42;25096;1315;3026263;-67
2022/09/26 04:13:08;;;;;;;7.60;3.60;;;;;;;13.71;72.15;99263.84;25065;1315;3028127;-65
2022/09/26 04:15:42;;;;;;;7.50;3.90;;;;;;;13.53;72.57;99261.21;24998;1315;3071199;-64
2022/09/26 04:18:14;;;;;;;12.90;3.90;;;;;;;13.32;73.45;99270.69;25032;1315;3028421;-65
2022/09/26 04:20:43;;;;;;;7.70;4.50;;;;;;;13.14;74.01;99265.61;25053;1314;3026877;-64
2022/09/26 04:23:14;;;;;;;7.80;4.40;;;;;;;12.95;75.12;99269.70;25108;1315;3070241;-66
2022/09/26 04:25:43;;;;;;;5.70;2.60;;;;;;;12.78;76.62;99276.15;25043;1315;3026719;-65
2022/09/26 04:28:12;;;;;;;6.50;2.90;;;;;;;13.17;75.86;99280.87;25112;1315;3053356;-67
2022/09/26 04:30:41;;;;;;;11.00;4.60;;;;;;;13.40;75.01;99276.58;25028;1314;3026663;-66
2022/09/26 04:33:12;;;;;;;7.30;3.90;;;;;;;13.44;74.94;99277.85;25038;1315;3052502;-64
2022/09/26 04:35:47;;;;;;;7.20;4.10;;;;;;;13.29;75.36;99275.30;25087;1315;3054584;-64
2022/09/26 04:38:17;;;;;;;7.00;3.70;;;;;;;13.12;76.23;99276.00;25011;1315;3026539;-64
2022/09/26 04:40:46;;;;;;;8.00;4.00;;;;;;;12.99;76.41;99266.23;24988;1315;3056256;-63
2022/09/26 04:43:15;;;;;;;9.00;4.30;;;;;;;12.83;77.03;99265.40;25020;1315;3026605;-66
2022/09/26 04:45:44;;;;;;;6.50;3.40;;;;;;;12.71;77.67;99264.23;25084;1315;3051828;-65
2022/09/26 04:48:14;;;;;;;9.50;3.60;;;;;;;13.26;76.22;99261.77;24958;1314;3028984;-62
2022/09/26 04:50:46;;;;;;;10.50;4.70;;;;;;;13.81;73.70;99262.02;25023;1315;3026783;-65
2022/09/26 04:53:16;;;;;;;8.50;4.20;;;;;;;13.72;73.40;99262.16;25047;1315;3026363;-62
2022/09/26 04:56:09;;;;;;;8.00;3.70;;;;;;;13.55;73.85;99259.45;24999;1315;3055604;-65
2022/09/26 04:58:40;;;;;;;8.60;4.00;;;;;;;13.49;74.17;99251.10;25058;1315;3051205;-64
2022/09/26 05:01:13;;;;;;;8.10;4.30;;;;;;;13.28;74.84;99249.97;25002;1315;3026575;-63
2022/09/26 05:04:02;;;;;;;10.60;4.20;;;;;;;13.21;75.02;99250.35;25086;1315;3051786;-64
2022/09/26 05:06:32;;;;;;;10.70;3.40;;;;;;;13.15;75.59;99250.45;25104;1315;3026476;-67
2022/09/26 05:09:03;;;;;;;8.10;3.40;;;;;;;13.64;74.36;99253.13;25110;1315;3026745;-66
2022/09/26 05:11:52;;;;;;;5.80;3.50;;;;;;;14.24;71.90;99251.64;25106;1315;3058516;-66
2022/09/26 05:14:22;;;;;;;8.50;3.50;;;;;;;14.22;71.71;99251.14;25065;1315;3026297;-65
2022/09/26 05:16:51;;;;;;;8.00;3.60;;;;;;;14.11;71.54;99245.56;25014;1315;3052914;-66
2022/09/26 05:19:20;;;;;;;6.90;3.80;;;;;;;13.95;72.53;99251.09;25035;1315;3028531;-66
2022/09/26 05:22:30;;;;;;;10.40;4.50;;;;;;;13.69;74.22;99251.52;24960;1321;3055229;-69
2022/09/26 05:27:47;;;;;;;4.30;2.40;;;;;;;13.60;75.58;99247.40;25045;1317;3056117;-64
2022/09/26 05:30:16;;;;;;;6.80;3.60;;;;;;;14.29;73.68;99253.38;25115;1314;3026260;-66
2022/09/26 05:32:47;;;;;;;7.80;3.70;;;;;;;14.74;71.75;99251.91;25067;1315;3054278;-64
2022/09/26 05:35:16;;;;;;;7.70;4.30;;;;;;;14.71;70.99;99252.64;25055;1315;3026380;-64
2022/09/26 05:37:46;;;;;;;5.70;3.40;;;;;;;14.39;71.95;99254.89;25109;1314;3027112;-64
2022/09/26 05:43:03;;;;;;;8.60;4.60;;;;;;;13.91;74.03;99259.69;25047;1315;3055780;-67
2022/09/26 05:45:33;;;;;;;8.30;4.50;;;;;;;13.86;74.37;99256.89;25085;1315;3026779;-66
2022/09/26 05:48:04;;;;;;;10.10;4.70;;;;;;;13.76;75.05;99257.64;25094;1315;3029230;-65
2022/09/26 05:50:34;;;;;;;5.70;2.80;;;;;;;13.67;76.08;99266.96;25036;1315;3027125;-64
2022/09/26 05:53:03;;;;;;;4.00;3.00;;;;;;;14.24;74.88;99262.91;25093;1315;3027768;-68
2022/09/26 05:55:32;;;;;;;8.60;4.00;;;;;;;14.75;73.05;99257.64;25088;1315;3054276;-64
2022/09/26 05:58:08;;;;;;;6.50;4.40;;;;;;;14.76;72.58;99264.74;25071;1315;3054332;-68
2022/09/26 06:01:12;;;;;;;10.70;4.30;;;;;;;14.71;73.37;99263.62;25096;1315;3071092;-67
2022/09/26 06:03:43;;;;;;;10.10;4.40;;;;;;;14.44;74.36;99265.77;25108;1315;3048224;-64
2022/09/26 06:06:16;;;;;;;9.80;5.00;;;;;;;14.30;75.00;99266.64;25092;1315;3027531;-67
2022/09/26 06:08:47;;;;;;;15.40;8.20;;;;;;;14.22;75.58;99266.03;25106;1315;3051449;-67
2022/09/26 06:11:26;;;;;;;13.40;7.00;;;;;;;14.20;76.86;99263.96;25145;1315;3057022;-68
2022/09/26 06:13:57;;;;;;;13.60;7.30;;;;;;;14.86;74.93;99260.45;25019;1315;3051789;-66
2022/09/26 06:16:26;;;;;;;20.00;8.20;;;;;;;15.25;73.40;99255.30;25178;1315;3028141;-67
2022/09/26 06:18:55;;;;;;;23.90;10.40;;;;;;;15.25;73.68;99253.38;25040;1315;3026085;-65
2022/09/26 06:21:24;;;;;;;28.20;10.20;;;;;;;15.25;74.00;99250.00;25119;1314;3049966;-68
2022/09/26 06:23:58;;;;;;;50.80;14.30;;;;;;;15.14;74.74;99251.60;25139;1315;3055381;-65
2022/09/26 06:26:28;;;;;;;72.10;20.80;;;;;;;15.07;75.41;99257.39;25127;1315;3026519;-65
2022/09/26 06:28:58;;;;;;;88.90;24.00;;;;;;;14.92;76.48;99258.05;25102;1315;3026590;-67
2022/09/26 06:31:29;;;;;;;52.80;17.30;;;;;;;14.89;77.28;99257.09;25085;1315;3054809;-68
2022/09/26 06:34:13;;;;;;;53.90;19.00;;;;;;;15.41;75.99;99256.80;25128;1315;3052489;-66
2022/09/26 06:37:14;;;;;;;41.90;16.60;;;;;;;15.84;74.18;99259.72;25104;1314;3068529;-67
2022/09/26 06:39:43;;;;;;;48.30;17.60;;;;;;;15.85;74.39;99260.20;25105;1315;3026815;-66
2022/09/26 06:42:14;;;;;;;40.20;17.20;;;;;;;15.74;74.60;99260.93;25117;1315;3052659;-64
2022/09/26 06:44:59;;;;;;;37.50;13.60;;;;;;;15.43;76.02;99262.26;25142;1314;3071301;-67
2022/09/26 06:47:28;;;;;;;34.40;12.90;;;;;;;15.27;77.22;99267.15;25064;1314;3026900;-66
2022/09/26 06:50:33;;;;;;;25.60;7.30;;;;;;;15.34;77.25;99271.83;24914;1320;3054372;-65
2022/09/26 06:53:03;;;;;;;22.70;7.60;;;;;;;15.65;76.14;99273.11;25080;1315;3026946;-68
2022/09/26 06:55:33;;;;;;;19.90;7.70;;;;;;;15.89;75.57;99273.20;25069;1315;3027133;-66
2022/09/26 06:58:01;;;;;;;17.10;8.10;;;;;;;15.78;75.66;99275.23;25046;1314;3026464;-65
2022/09/26 07:00:37;;;;;;;19.40;9.20;;;;;;;15.69;76.30;99282.35;25117;1315;3071111;-67
2022/09/26 07:03:18;;;;;;;16.90;8.20;;;;;;;15.45;77.28;99283.69;25086;1315;3049668;-68
2022/09/26 07:05:55;;;;;;;17.30;9.20;;;;;;;15.45;76.87;99286.09;25115;1315;3052523;-68
2022/09/26 07:08:24;;;;;;;10.70;5.70;;;;;;;15.27;77.96;99292.75;25086;1315;3027104;-65
2022/09/26 07:11:01;;;;;;;16.00;6.80;;;;;;;15.54;77.39;99290.27;25085;1315;3026583;-69
2022/09/26 07:13:34;;;;;;;15.50;7.60;;;;;;;16.28;74.38;99286.52;25091;1315;3052417;-66
2022/09/26 07:16:03;;;;;;;17.10;7.80;;;;;;;16.19;73.46;99287.63;25071;1315;3027330;-69
2022/09/26 07:19:01;;;;;;;17.30;8.70;;;;;;;15.83;75.19;99292.45;24998;1318;3051164;-67
2022/09/26 07:21:50;;;;;;;15.40;9.70;;;;;;;16.06;74.54;99290.54;25080;1314;3069168;-67
2022/09/26 07:24:28;;;;;;;19.50;6.00;;;;;;;15.88;75.39;99292.98;25085;1314;3049720;-67
2022/09/26 07:26:57;;;;;;;14.60;7.10;;;;;;;16.23;74.63;99299.10;25009;1315;3026468;-65
2022/09/26 07:29:28;;;;;;;16.20;8.20;;;;;;;16.47;73.49;99294.77;25068;1314;3026886;-65
2022/09/26 07:31:58;;;;;;;14.70;8.20;;;;;;;16.41;73.38;99293.48;25053;1315;3027399;-65
2022/09/26 07:34:41;;;;;;;15.50;9.30;;;;;;;16.37;73.61;99294.75;25083;1315;3049963;-69
2022/09/26 07:37:10;;;;;;;12.30;8.20;;;;;;;16.27;73.69;99294.05;25079;1314;3026858;-69
2022/09/26 07:39:42;;;;;;;17.90;9.60;;;;;;;16.14;74.15;99295.50;25068;1315;3026261;-68
2022/09/26 07:42:12;;;;;;;8.80;4.90;;;;;;;16.12;74.49;99294.74;25025;1315;3027042;-70
2022/09/26 07:44:43;;;;;;;12.60;6.60;;;;;;;16.77;72.14;99287.00;25025;1314;3026134;-69
2022/09/26 07:50:15;;;;;;;17.10;7.30;;;;;;;16.89;71.98;99285.55;25050;1315;3052399;-69
2022/09/26 07:53:04;;;;;;;14.20;7.90;;;;;;;16.89;71.63;99291.62;25063;1314;3058926;-68
2022/09/26 07:56:04;;;;;;;17.40;8.40;;;;;;;16.83;71.56;99290.40;25031;1314;3026538;-67
2022/09/26 07:58:43;;;;;;;15.40;8.40;;;;;;;16.64;72.14;99297.54;25088;1314;3052458;-70
2022/09/26 08:01:27;;;;;;;14.80;8.80;;;;;;;16.55;72.67;99285.38;25060;1314;3056292;-72
2022/09/26 08:04:25;;;;;;;9.00;5.10;;;;;;;16.52;72.92;99283.71;24958;1317;3052353;-68
2022/09/26 08:06:55;;;;;;;10.80;5.20;;;;;;;17.28;70.52;99282.64;25092;1315;3026370;-70
2022/09/26 08:09:24;;;;;;;14.00;6.50;;;;;;;17.84;67.62;99278.69;25082;1314;3030541;-68
2022/09/26 08:12:13;;;;;;;13.80;6.00;;;;;;;17.92;66.46;99273.52;25052;1314;3071445;-69
2022/09/26 08:15:09;;;;;;;14.40;7.10;;;;;;;18.12;66.41;99271.35;25061;1314;3050660;-67
2022/09/26 08:17:43;;;;;;;17.30;7.00;;;;;;;17.99;66.68;99268.06;25087;1314;3054684;-71
2022/09/26 08:20:12;;;;;;;11.80;6.00;;;;;;;17.81;66.16;99273.66;25126;1314;3026712;-67
2022/09/26 08:22:42;;;;;;;9.90;6.40;;;;;;;17.67;66.46;99273.55;25016;1315;3026855;-70
2022/09/26 08:25:14;;;;;;;12.00;6.10;;;;;;;17.35;67.08;99275.57;25034;1318;3052397;-70
2022/09/26 08:27:52;;;;;;;14.10;6.40;;;;;;;17.16;67.09;99267.26;25092;1315;3052630;-69
2022/09/26 08:30:23;;;;;;;11.50;7.40;;;;;;;17.00;67.83;99263.51;25057;1315;3028734;-68
2022/09/26 08:32:59;;;;;;;14.80;6.40;;;;;;;17.18;66.83;99262.67;25057;1315;3028121;-68
2022/09/26 08:35:32;;;;;;;13.00;6.80;;;;;;;17.39;66.57;99261.79;25095;1316;3053606;-70
2022/09/26 08:38:20;;;;;;;10.10;5.60;;;;;;;17.36;67.30;99256.56;25102;1315;3050986;-68
2022/09/26 08:41:31;;;;;;;12.10;5.90;;;;;;;17.43;65.99;99243.73;25068;1315;3068873;-67
2022/09/26 08:44:28;;;;;;;14.80;5.40;;;;;;;17.35;66.78;99245.32;25098;1315;3049314;-69
2022/09/26 08:47:38;;;;;;;8.50;3.20;;;;;;;17.48;66.77;99250.39;25138;1315;3054816;-70
2022/09/26 08:50:48;;;;;;;14.60;4.80;;;;;;;18.21;65.46;99239.04;25068;1315;3054893;-70
2022/09/26 08:53:28;;;;;;;8.30;4.60;;;;;;;18.47;64.35;99239.77;25010;1315;3057336;-66
2022/09/26 08:55:59;;;;;;;9.90;5.10;;;;;;;18.35;64.80;99238.45;25077;1315;3050110;-63
2022/09/26 08:58:39;;;;;;;13.10;5.20;;;;;;;18.25;65.77;99243.13;25121;1315;3029595;-66
2022/09/26 09:01:12;;;;;;;10.70;5.60;;;;;;;18.33;65.81;99233.71;25135;1316;3056155;-66
2022/09/26 09:04:02;;;;;;;12.90;6.20;;;;;;;18.21;66.27;99241.63;25106;1315;3049817;-66
2022/09/26 09:06:31;;;;;;;16.50;6.30;;;;;;;18.06;66.62;99244.73;25077;1315;3027895;-65
2022/09/26 09:09:01;;;;;;;11.10;6.50;;;;;;;18.09;65.96;99246.09;25040;1316;3026556;-66
2022/09/26 09:11:46;;;;;;;12.90;6.70;;;;;;;18.29;65.94;99243.42;25001;1315;3069414;-65
2022/09/26 09:14:40;;;;;;;11.30;6.30;;;;;;;18.32;65.13;99244.27;25045;1315;3051329;-65
2022/09/26 09:17:39;;;;;;;10.10;6.40;;;;;;;18.23;64.95;99236.56;25130;1315;3052969;-67
2022/09/26 09:20:19;;;;;;;16.00;6.30;;;;;;;18.48;64.35;99243.78;25091;1315;3051538;-64
2022/09/26 09:23:15;;;;;;;11.90;7.40;;;;;;;18.57;64.43;99241.50;25106;1315;3059458;-65
2022/09/26 09:26:04;;;;;;;9.40;6.30;;;;;;;18.80;63.64;99231.91;25092;1315;3049998;-65
2022/09/26 09:28:57;;;;;;;12.10;7.90;;;;;;;18.91;63.37;99231.05;25071;1315;3054499;-67
2022/09/26 09:31:28;;;;;;;8.90;5.70;;;;;;;18.87;62.23;99232.29;25135;1315;3051732;-66
2022/09/26 09:34:27;;;;;;;9.90;6.30;;;;;;;18.99;62.71;99229.28;25153;1313;3070894;-66
2022/09/26 09:37:25;;;;;;;10.40;7.00;;;;;;;19.03;62.05;99233.23;25229;1314;3048777;-65
2022/09/26 09:40:21;;;;;;;14.40;6.90;;;;;;;19.05;62.15;99229.81;25151;1313;3052098;-64
2022/09/26 09:43:03;;;;;;;8.80;6.70;;;;;;;19.03;62.08;99224.09;25145;1313;3053835;-65
2022/09/26 09:45:46;;;;;;;11.30;6.50;;;;;;;19.02;61.95;99223.83;25118;1316;3056470;-65
2022/09/26 09:48:15;;;;;;;11.70;6.20;;;;;;;18.90;61.74;99218.71;24982;1317;3052928;-66
2022/09/26 09:51:04;;;;;;;8.50;5.90;;;;;;;18.86;60.91;99214.31;25119;1315;3026578;-68
2022/09/26 09:53:56;;;;;;;8.50;5.00;;;;;;;19.04;60.49;99218.22;25067;1315;3059005;-71
2022/09/26 09:56:48;;;;;;;10.00;6.10;;;;;;;19.13;59.61;99213.40;25031;1314;3052700;-68
2022/09/26 09:59:23;;;;;;;13.50;6.00;;;;;;;19.27;59.42;99214.73;25097;1315;3053233;-66
2022/09/26 10:02:59;;;;;;;9.40;4.80;;;;;;;19.25;59.48;99209.62;25118;1315;3052343;-66
2022/09/26 10:05:52;;;;;;;10.80;4.90;;;;;;;19.22;60.03;99212.70;24986;1318;3068703;-67
2022/09/26 10:08:41;;;;;;;7.40;5.10;;;;;;;19.30;59.39;99205.70;25097;1315;3051901;-68
2022/09/26 10:11:42;;;;;;;10.00;5.00;;;;;;;19.35;59.30;99205.59;25054;1313;3052561;-67
2022/09/26 10:14:35;;;;;;;10.60;5.60;;;;;;;19.35;59.81;99210.89;25011;1313;3055576;-68
2022/09/26 10:17:10;;;;;;;11.40;5.10;;;;;;;19.45;59.41;99218.77;25129;1316;3026441;-65
2022/09/26 10:20:34;;;;;;;7.80;5.50;;;;;;;19.58;58.98;99197.77;25030;1313;3051018;-64
2022/09/26 10:23:09;;;;;;;8.90;4.90;;;;;;;19.94;57.59;99187.80;25126;1315;3052955;-64
2022/09/26 10:25:40;;;;;;;5.50;4.50;;;;;;;20.26;57.18;99188.44;25147;1313;3050768;-65
2022/09/26 10:28:10;;;;;;;11.80;4.70;;;;;;;20.42;56.06;99186.52;24986;1316;3026307;-65
2022/09/26 10:30:47;;;;;;;5.70;3.50;;;;;;;20.44;54.72;99186.72;25099;1316;3027506;-65
2022/09/26 10:33:33;;;;;;;11.30;3.90;;;;;;;20.39;54.35;99181.92;25096;1313;3052251;-66
2022/09/26 10:36:30;;;;;;;5.70;3.90;;;;;;;20.31;54.82;99176.48;25132;1313;3052925;-66
2022/09/26 10:41:56;;;;;;;6.00;3.30;;;;;;;20.39;54.16;99174.60;25096;1312;3054037;-68
2022/09/26 10:44:33;;;;;;;7.20;4.20;;;;;;;20.50;54.08;99177.46;25140;1313;3027493;-68
2022/09/26 10:47:18;;;;;;;12.10;4.10;;;;;;;20.36;54.56;99169.52;25136;1313;3054598;-67
2022/09/26 10:50:15;;;;;;;9.40;4.20;;;;;;;20.39;54.84;99165.20;25067;1313;3067371;-70
2022/09/26 10:53:07;;;;;;;8.80;4.30;;;;;;;20.38;55.00;99173.77;25131;1313;3048106;-66
2022/09/26 10:55:43;;;;;;;5.10;4.20;;;;;;;20.24;55.79;99175.60;25029;1315;3026943;-67
2022/09/26 10:58:21;;;;;;;10.60;4.40;;;;;;;20.22;55.87;99177.73;25053;1315;3054869;-65
2022/09/26 11:00:51;;;;;;;6.00;3.70;;;;;;;20.28;55.92;99169.05;24990;1314;3058131;-69
2022/09/26 11:03:34;;;;;;;8.40;4.00;;;;;;;20.19;55.09;99172.23;25023;1313;3026957;-70
2022/09/26 11:06:34;;;;;;;10.40;4.30;;;;;;;20.36;54.52;99162.85;25049;1313;3055447;-67
2022/09/26 11:09:17;;;;;;;5.50;4.10;;;;;;;20.51;54.30;99152.17;25115;1315;3050465;-68
2022/09/26 11:12:24;;;;;;;6.10;3.70;;;;;;;20.57;54.45;99148.84;25004;1315;3071875;-67
2022/09/26 11:15:00;;;;;;;4.70;3.50;;;;;;;20.29;53.68;99151.47;25140;1313;3051844;-69
2022/09/26 11:17:48;;;;;;;6.40;3.80;;;;;;;20.21;53.36;99153.89;25031;1317;3052834;-67
2022/09/26 11:20:37;;;;;;;10.60;3.20;;;;;;;20.05;52.48;99146.30;25091;1314;3054667;-65
2022/09/26 11:23:26;;;;;;;6.50;3.20;;;;;;;20.12;51.83;99148.46;25067;1315;3056583;-67
2022/09/26 11:26:22;;;;;;;5.10;3.30;;;;;;;20.39;51.32;99145.98;25067;1313;3052778;-68
2022/09/26 11:29:08;;;;;;;4.70;3.50;;;;;;;20.78;50.62;99132.35;25088;1313;3053445;-68
2022/09/26 11:31:45;;;;;;;5.60;3.80;;;;;;;21.04;49.13;99134.72;25117;1315;3054218;-64
2022/09/26 11:34:34;;;;;;;14.80;4.50;;;;;;;21.24;48.23;99127.30;25063;1313;3071168;-67
2022/09/26 11:37:42;;;;;;;9.40;3.60;;;;;;;21.42;48.09;99128.88;24371;1313;4338265;-66
2022/09/26 11:40:33;;;;;;;19.70;7.30;;;;;;;21.09;47.76;99129.16;25099;1313;3054205;-66
2022/09/26 11:43:24;;;;;;;25.70;8.70;;;;;;;20.82;48.76;99125.40;25159;1313;3054998;-68
2022/09/26 11:46:02;;;;;;;26.70;9.00;;;;;;;20.89;48.75;99120.48;25104;1313;3056652;-67
2022/09/26 11:49:28;;;;;;;18.00;6.70;;;;;;;20.96;48.17;99111.86;25127;1313;3052148;-66
2022/09/26 11:52:44;;;;;;;9.20;4.10;;;;;;;20.75;47.80;99119.67;25127;1314;3052449;-66
2022/09/26 11:55:49;;;;;;;11.90;4.90;;;;;;;20.63;48.15;99114.46;25108;1313;3053654;-67
2022/09/26 11:58:37;;;;;;;18.80;7.00;;;;;;;20.57;48.15;99115.95;25090;1314;3069216;-67
2022/09/26 12:01:22;;;;;;;25.00;10.00;;;;;;;20.48;47.54;99110.52;25190;1313;3051642;-68
2022/09/26 12:04:10;;;;;;;;;;;;;;;20.51;46.83;99109.29;25121;1313;3052768;-66
2022/09/26 12:06:48;;;;;;;19.50;7.40;;;;;;;20.85;45.28;99102.77;25118;1313;3055261;-68
2022/09/26 12:09:46;;;;;;;16.10;6.60;;;;;;;21.23;44.15;99106.60;25147;1313;3057245;-67
2022/09/26 12:13:07;;;;;;;12.90;4.80;;;;;;;21.62;43.32;99099.86;25135;1313;3050853;-67
2022/09/26 12:15:53;;;;;;;6.30;3.00;;;;;;;21.96;43.09;99099.91;25013;1314;3055606;-66
2022/09/26 12:18:42;;;;;;;4.20;2.40;;;;;;;22.12;43.07;99110.90;25151;1313;3051762;-66
2022/09/26 12:21:20;;;;;;;9.10;2.60;;;;;;;22.12;41.35;99111.27;25104;1313;3068548;-66